Time;durP1;ratioP1;P1;durP2;ratioP2;P2;SDS_P1;SDS_P2;PMS_P1;PMS_P2;Temp;Humidity;BMP_temperature;BMP_pressure;BME280_temperature;BME280_humidity;BME280_pressure;Samples;Min_cycle;Max_cycle;Signal;HPM_P1;HPM_P2
2022/11/17 00:02:21;;;;;;;10.33;6.53;;;;;;;;;;4973361;28;20214;-87
2022/11/17 00:04:49;;;;;;;8.50;6.13;;;;;;;;;;4973544;28;20226;-86
2022/11/17 00:07:17;;;;;;;7.43;5.83;;;;;;;;;;4974640;28;20230;-87
2022/11/17 00:09:46;;;;;;;9.23;7.17;;;;;;;;;;4973671;28;20282;-87
2022/11/17 00:15:00;;;;;;;7.90;5.47;;;;;;;;;;4973848;28;20269;-87
2022/11/17 00:17:30;;;;;;;11.20;6.27;;;;;;;;;;4962072;28;20237;-86
2022/11/17 00:22:44;;;;;;;11.17;5.43;;;;;;;;;;4973527;28;20238;-86
2022/11/17 00:25:12;;;;;;;9.53;6.07;;;;;;;;;;4974169;28;20325;-86
2022/11/17 00:27:41;;;;;;;11.50;7.00;;;;;;;;;;4973640;28;20246;-86
2022/11/17 00:34:03;;;;;;;12.13;5.73;;;;;;;;;;4973124;28;20234;-86
2022/11/17 00:35:51;;;;;;;14.93;5.27;;;;;;;;;;4973288;28;20198;-85
2022/11/17 00:38:19;;;;;;;11.00;4.83;;;;;;;;;;4973343;28;20326;-84
2022/11/17 00:40:47;;;;;;;12.93;5.90;;;;;;;;;;4973205;28;20237;-84
2022/11/17 00:43:16;;;;;;;7.27;4.70;;;;;;;;;;4972921;28;20298;-84
2022/11/17 00:45:44;;;;;;;5.20;3.83;;;;;;;;;;4973067;28;20310;-84
2022/11/17 00:48:14;;;;;;;10.63;5.63;;;;;;;;;;4972954;28;20212;-84
2022/11/17 00:50:42;;;;;;;5.30;4.07;;;;;;;;;;4972948;28;20205;-85
2022/11/17 00:53:10;;;;;;;6.17;5.20;;;;;;;;;;4973065;28;20274;-85
2022/11/17 00:55:39;;;;;;;10.03;6.47;;;;;;;;;;4974186;28;20286;-84
2022/11/17 00:58:07;;;;;;;7.70;5.40;;;;;;;;;;4974186;28;20202;-84
2022/11/17 01:00:35;;;;;;;9.63;5.20;;;;;;;;;;4972871;28;20198;-84
2022/11/17 01:03:04;;;;;;;8.17;5.40;;;;;;;;;;4973697;28;20227;-85
2022/11/17 01:05:34;;;;;;;12.70;4.93;;;;;;;;;;4972738;28;20242;-85
2022/11/17 01:08:03;;;;;;;9.03;6.00;;;;;;;;;;4963820;28;20274;-85
2022/11/17 01:10:31;;;;;;;9.77;5.33;;;;;;;;;;4972707;28;20230;-85
2022/11/17 01:12:59;;;;;;;8.67;6.10;;;;;;;;;;4972836;28;20195;-85
2022/11/17 01:15:28;;;;;;;8.43;5.30;;;;;;;;;;4972689;28;20281;-85
2022/11/17 01:17:56;;;;;;;6.80;5.37;;;;;;;;;;4972811;28;20226;-85
2022/11/17 01:20:24;;;;;;;8.63;6.80;;;;;;;;;;4972821;28;20266;-85
2022/11/17 01:22:55;;;;;;;8.83;5.20;;;;;;;;;;4973500;28;20295;-84
2022/11/17 01:25:24;;;;;;;11.93;5.63;;;;;;;;;;4976331;28;20235;-85
2022/11/17 01:27:52;;;;;;;9.20;6.87;;;;;;;;;;4977115;28;20334;-84
2022/11/17 01:30:21;;;;;;;9.63;6.87;;;;;;;;;;4975981;28;20244;-85
2022/11/17 01:32:49;;;;;;;8.33;5.60;;;;;;;;;;4976250;28;20261;-84
2022/11/17 01:35:17;;;;;;;7.60;5.47;;;;;;;;;;4963269;28;20235;-84
2022/11/17 01:37:46;;;;;;;6.33;4.73;;;;;;;;;;4975701;28;20268;-85
2022/11/17 01:40:15;;;;;;;8.60;6.67;;;;;;;;;;4975811;28;20234;-85
2022/11/17 01:42:44;;;;;;;5.90;4.83;;;;;;;;;;4975687;28;20199;-85
2022/11/17 01:45:19;;;;;;;5.47;4.13;;;;;;;;;;4975745;28;20301;-85
2022/11/17 01:47:50;;;;;;;4.03;3.63;;;;;;;;;;4975699;28;20296;-85
2022/11/17 01:50:30;;;;;;;5.57;5.07;;;;;;;;;;4975735;28;20317;-85
2022/11/17 01:53:00;;;;;;;8.23;4.83;;;;;;;;;;4976888;28;20295;-85
2022/11/17 01:55:33;;;;;;;6.97;5.37;;;;;;;;;;4976650;28;20207;-85
2022/11/17 01:58:03;;;;;;;5.87;5.17;;;;;;;;;;4975977;28;20299;-85
2022/11/17 02:00:31;;;;;;;6.43;5.20;;;;;;;;;;4975586;28;20203;-85
2022/11/17 02:03:00;;;;;;;8.57;5.23;;;;;;;;;;4975654;28;20234;-86
2022/11/17 02:05:35;;;;;;;7.13;5.03;;;;;;;;;;4975286;28;20209;-85
2022/11/17 02:08:06;;;;;;;5.67;4.80;;;;;;;;;;4975214;28;20254;-86
2022/11/17 02:10:36;;;;;;;6.27;5.67;;;;;;;;;;4976168;28;20235;-86
2022/11/17 02:13:05;;;;;;;8.10;6.57;;;;;;;;;;4975384;28;20300;-86
2022/11/17 02:15:33;;;;;;;6.93;6.33;;;;;;;;;;4976594;28;20196;-86
2022/11/17 02:18:02;;;;;;;9.27;6.40;;;;;;;;;;4975037;28;20203;-86
2022/11/17 02:20:45;;;;;;;8.93;6.60;;;;;;;;;;4974929;28;20287;-85
2022/11/17 02:23:34;;;;;;;7.33;5.73;;;;;;;;;;4972588;28;20213;-85
2022/11/17 02:26:21;;;;;;;12.33;7.70;;;;;;;;;;4975031;28;20322;-86
2022/11/17 02:28:55;;;;;;;8.33;6.27;;;;;;;;;;4959985;28;20204;-85
2022/11/17 02:31:28;;;;;;;7.33;6.70;;;;;;;;;;4971894;28;20261;-86
2022/11/17 02:34:03;;;;;;;7.67;6.90;;;;;;;;;;4974610;28;20203;-85
2022/11/17 02:36:34;;;;;;;7.00;5.30;;;;;;;;;;4974014;28;20298;-85
2022/11/17 02:39:10;;;;;;;6.83;6.17;;;;;;;;;;4975737;28;20232;-85
2022/11/17 02:41:45;;;;;;;4.40;3.77;;;;;;;;;;4974334;28;20199;-85
2022/11/17 02:44:15;;;;;;;5.23;4.73;;;;;;;;;;4974639;28;20290;-86
2022/11/17 02:46:45;;;;;;;2.53;2.27;;;;;;;;;;4962825;28;20317;-86
2022/11/17 02:49:16;;;;;;;5.27;2.87;;;;;;;;;;4974874;28;20222;-86
2022/11/17 02:51:45;;;;;;;4.80;3.77;;;;;;;;;;4975098;28;20295;-85
2022/11/17 02:54:13;;;;;;;3.57;3.27;;;;;;;;;;4976020;28;20288;-85
2022/11/17 02:56:42;;;;;;;4.37;3.37;;;;;;;;;;4974575;28;20204;-85
2022/11/17 02:59:12;;;;;;;4.37;3.97;;;;;;;;;;4974275;28;20215;-86
2022/11/17 03:01:55;;;;;;;4.67;4.27;;;;;;;;;;4974707;28;20205;-86
2022/11/17 03:04:30;;;;;;;4.77;3.27;;;;;;;;;;4971292;28;20235;-86
2022/11/17 03:07:05;;;;;;;6.00;4.70;;;;;;;;;;4974073;28;20282;-86
2022/11/17 03:09:37;;;;;;;3.17;2.50;;;;;;;;;;4974210;28;20236;-86
2022/11/17 03:12:10;;;;;;;4.67;2.60;;;;;;;;;;4974490;28;20270;-85
2022/11/17 03:14:44;;;;;;;3.93;2.80;;;;;;;;;;4974158;28;20202;-86
2022/11/17 03:17:15;;;;;;;3.10;2.80;;;;;;;;;;4974002;28;20203;-85
2022/11/17 03:19:47;;;;;;;3.50;3.17;;;;;;;;;;4974250;28;20293;-85
2022/11/17 03:22:17;;;;;;;5.30;2.40;;;;;;;;;;4974130;28;20218;-85
2022/11/17 03:24:48;;;;;;;3.43;2.40;;;;;;;;;;4975037;28;20207;-86
2022/11/17 03:27:18;;;;;;;3.47;2.77;;;;;;;;;;4971491;28;20235;-86
2022/11/17 03:29:48;;;;;;;5.33;3.50;;;;;;;;;;4972749;28;20210;-86
2022/11/17 03:32:17;;;;;;;4.13;2.80;;;;;;;;;;4973625;28;20207;-86
2022/11/17 03:34:56;;;;;;;4.63;2.70;;;;;;;;;;4973975;28;20228;-86
2022/11/17 03:37:27;;;;;;;4.47;3.17;;;;;;;;;;4973979;28;20231;-86
2022/11/17 03:39:58;;;;;;;3.27;2.80;;;;;;;;;;4973995;28;20232;-86
2022/11/17 03:42:28;;;;;;;3.30;2.67;;;;;;;;;;4973756;28;20197;-86
2022/11/17 03:44:57;;;;;;;3.50;2.63;;;;;;;;;;4972460;28;20236;-86
2022/11/17 03:47:27;;;;;;;2.57;2.17;;;;;;;;;;4973235;28;20237;-86
2022/11/17 03:50:00;;;;;;;5.07;2.93;;;;;;;;;;4964385;28;20228;-86
2022/11/17 03:52:29;;;;;;;3.73;2.97;;;;;;;;;;4971035;28;20228;-86
2022/11/17 03:54:58;;;;;;;3.33;2.30;;;;;;;;;;4970204;28;20215;-86
2022/11/17 03:57:30;;;;;;;5.13;2.40;;;;;;;;;;4972793;28;20272;-86
2022/11/17 04:00:01;;;;;;;5.07;2.50;;;;;;;;;;4974834;28;20211;-85
2022/11/17 04:02:29;;;;;;;2.90;2.13;;;;;;;;;;4973855;28;20208;-86
2022/11/17 04:05:05;;;;;;;6.10;2.53;;;;;;;;;;4973338;28;20217;-86
2022/11/17 04:07:34;;;;;;;3.43;2.17;;;;;;;;;;4974207;28;20240;-86
2022/11/17 04:10:02;;;;;;;5.70;2.63;;;;;;;;;;4973396;28;20201;-86
2022/11/17 04:18:14;;;;;;;2.33;2.13;;;;;;;;;;4963002;28;20251;-86
2022/11/17 04:20:44;;;;;;;4.47;2.83;;;;;;;;;;4973441;28;20208;-86
2022/11/17 04:23:14;;;;;;;4.67;2.90;;;;;;;;;;4973522;28;20276;-86
2022/11/17 04:28:36;;;;;;;4.70;2.93;;;;;;;;;;4973361;28;20223;-86
2022/11/17 04:31:06;;;;;;;3.33;2.57;;;;;;;;;;4962112;28;20207;-85
2022/11/17 04:33:34;;;;;;;4.50;2.47;;;;;;;;;;4974210;28;20226;-85
2022/11/17 04:36:05;;;;;;;3.17;2.40;;;;;;;;;;4972952;28;20209;-85
2022/11/17 04:38:34;;;;;;;2.97;2.17;;;;;;;;;;4973306;28;20239;-85
2022/11/17 04:43:49;;;;;;;5.63;2.13;;;;;;;;;;4973987;28;20204;-85
2022/11/17 04:46:17;;;;;;;2.37;2.17;;;;;;;;;;4974104;28;20208;-85
2022/11/17 04:48:46;;;;;;;5.90;2.17;;;;;;;;;;4973780;28;20211;-85
2022/11/17 04:51:16;;;;;;;2.57;1.93;;;;;;;;;;4974219;28;20204;-85
2022/11/17 04:53:45;;;;;;;2.03;1.93;;;;;;;;;;4960202;28;20235;-85
2022/11/17 04:56:13;;;;;;;3.07;2.10;;;;;;;;;;4973734;28;20208;-84
2022/11/17 04:58:42;;;;;;;3.30;2.20;;;;;;;;;;4974651;28;20211;-86
2022/11/17 05:01:14;;;;;;;6.43;3.20;;;;;;;;;;4976281;28;20236;-86
2022/11/17 05:03:43;;;;;;;4.73;2.67;;;;;;;;;;4976582;28;20320;-85
2022/11/17 05:06:13;;;;;;;2.90;2.27;;;;;;;;;;4976613;28;20203;-85
2022/11/17 05:08:43;;;;;;;2.57;2.37;;;;;;;;;;4976448;28;20251;-85
2022/11/17 05:13:59;;;;;;;3.27;2.97;;;;;;;;;;4976722;28;20303;-86
2022/11/17 05:19:14;;;;;;;7.47;2.90;;;;;;;;;;4976343;28;20215;-86
2022/11/17 05:21:43;;;;;;;7.10;3.10;;;;;;;;;;4977490;28;20205;-86
2022/11/17 05:24:13;;;;;;;4.80;3.17;;;;;;;;;;4977136;28;20204;-86
2022/11/17 05:26:42;;;;;;;6.57;3.50;;;;;;;;;;4976015;28;20240;-83
2022/11/17 05:29:11;;;;;;;6.27;3.47;;;;;;;;;;4976108;28;20307;-83
2022/11/17 05:31:39;;;;;;;4.30;3.17;;;;;;;;;;4975885;28;20208;-86
2022/11/17 05:34:08;;;;;;;5.70;4.07;;;;;;;;;;4974914;28;20196;-84
2022/11/17 05:36:36;;;;;;;7.30;3.43;;;;;;;;;;4976939;28;20208;-84
2022/11/17 05:39:05;;;;;;;4.93;3.43;;;;;;;;;;4977101;28;20231;-84
2022/11/17 05:41:35;;;;;;;4.70;3.30;;;;;;;;;;4975732;28;20251;-85
2022/11/17 05:44:04;;;;;;;3.57;3.07;;;;;;;;;;4975796;28;20215;-85
2022/11/17 05:46:32;;;;;;;6.17;2.73;;;;;;;;;;4975566;28;20212;-84
2022/11/17 05:49:01;;;;;;;6.30;3.80;;;;;;;;;;4975957;28;20306;-84
2022/11/17 05:51:31;;;;;;;3.87;3.43;;;;;;;;;;4975721;28;20204;-84
2022/11/17 05:53:59;;;;;;;3.83;3.27;;;;;;;;;;4976945;28;20292;-84
2022/11/17 05:56:33;;;;;;;7.00;3.53;;;;;;;;;;4975620;28;20228;-84
2022/11/17 05:59:07;;;;;;;3.90;3.53;;;;;;;;;;4976158;28;20230;-84
2022/11/17 06:01:37;;;;;;;4.87;3.70;;;;;;;;;;4975433;28;20207;-85
2022/11/17 06:04:06;;;;;;;3.73;3.33;;;;;;;;;;4976534;28;20228;-85
2022/11/17 06:06:35;;;;;;;5.30;3.83;;;;;;;;;;4976260;28;20210;-85
2022/11/17 06:09:03;;;;;;;3.93;3.53;;;;;;;;;;4975189;28;20220;-85
2022/11/17 06:11:31;;;;;;;4.23;3.77;;;;;;;;;;4972550;28;20241;-86
2022/11/17 06:14:00;;;;;;;5.30;3.60;;;;;;;;;;4967257;28;20303;-85
2022/11/17 06:16:33;;;;;;;6.83;4.60;;;;;;;;;;4975425;28;20240;-85
2022/11/17 06:19:03;;;;;;;7.23;4.03;;;;;;;;;;4975180;28;20205;-85
2022/11/17 06:21:32;;;;;;;4.37;3.53;;;;;;;;;;4975037;28;20265;-85
2022/11/17 06:24:20;;;;;;;6.47;5.33;;;;;;;;;;4974920;28;20204;-85
2022/11/17 06:26:49;;;;;;;6.20;4.13;;;;;;;;;;4974917;28;20279;-85
2022/11/17 06:29:17;;;;;;;5.90;5.30;;;;;;;;;;4974589;28;20358;-85
2022/11/17 06:31:47;;;;;;;6.90;5.40;;;;;;;;;;4975955;28;20235;-85
2022/11/17 06:34:16;;;;;;;6.07;5.47;;;;;;;;;;4974832;28;20248;-85
2022/11/17 06:36:44;;;;;;;4.17;3.83;;;;;;;;;;4975521;28;20209;-85
2022/11/17 06:39:13;;;;;;;8.20;5.73;;;;;;;;;;4974972;28;20196;-85
2022/11/17 06:41:41;;;;;;;4.63;3.97;;;;;;;;;;4976007;28;20204;-85
2022/11/17 06:44:09;;;;;;;4.20;3.87;;;;;;;;;;4974699;28;20320;-85
2022/11/17 06:46:38;;;;;;;7.17;4.30;;;;;;;;;;4974973;28;20235;-85
2022/11/17 06:49:08;;;;;;;4.03;3.73;;;;;;;;;;4975922;28;20314;-84
2022/11/17 06:51:36;;;;;;;4.30;3.90;;;;;;;;;;4974621;28;20211;-84
2022/11/17 06:54:13;;;;;;;5.90;3.07;;;;;;;;;;4974478;28;20231;-84
2022/11/17 06:56:42;;;;;;;6.07;3.13;;;;;;;;;;4973996;28;20201;-84
2022/11/17 06:59:10;;;;;;;3.03;1.83;;;;;;;;;;4975726;28;20203;-84
2022/11/17 07:01:39;;;;;;;0.60;0.60;;;;;;;;;;4974668;28;20228;-84
2022/11/17 07:04:09;;;;;;;1.97;1.80;;;;;;;;;;4974202;28;20314;-85
2022/11/17 07:06:37;;;;;;;1.73;1.63;;;;;;;;;;4974279;28;20211;-84
2022/11/17 07:09:06;;;;;;;2.50;2.30;;;;;;;;;;4974606;28;20215;-84
2022/11/17 07:11:35;;;;;;;1.77;1.63;;;;;;;;;;4962941;28;20254;-84
2022/11/17 07:14:03;;;;;;;3.80;1.80;;;;;;;;;;4974287;28;20232;-84
2022/11/17 07:16:32;;;;;;;2.17;1.30;;;;;;;;;;4974770;28;20197;-84
2022/11/17 07:19:02;;;;;;;1.43;1.33;;;;;;;;;;4973007;28;20199;-84
2022/11/17 07:21:33;;;;;;;3.70;2.63;;;;;;;;;;4974011;28;20312;-85
2022/11/17 07:24:01;;;;;;;3.10;2.63;;;;;;;;;;4973981;28;20272;-86
2022/11/17 07:26:30;;;;;;;2.37;1.50;;;;;;;;;;4974045;28;20216;-85
2022/11/17 07:28:59;;;;;;;6.77;3.03;;;;;;;;;;4973859;28;20276;-85
2022/11/17 07:31:27;;;;;;;4.80;3.07;;;;;;;;;;4974333;28;20209;-85
2022/11/17 07:33:56;;;;;;;5.97;3.77;;;;;;;;;;4973976;28;20208;-85
2022/11/17 07:36:24;;;;;;;5.50;4.07;;;;;;;;;;4974171;28;20216;-84
2022/11/17 07:38:54;;;;;;;5.33;4.33;;;;;;;;;;4973790;28;20200;-85
2022/11/17 07:41:22;;;;;;;6.33;3.83;;;;;;;;;;4975303;28;20209;-84
2022/11/17 07:43:54;;;;;;;3.90;3.50;;;;;;;;;;4973637;28;20207;-84
2022/11/17 07:46:24;;;;;;;1.90;1.77;;;;;;;;;;4974877;28;20220;-85
2022/11/17 07:48:54;;;;;;;2.70;2.47;;;;;;;;;;4961447;28;20336;-85
2022/11/17 07:51:24;;;;;;;5.47;4.27;;;;;;;;;;4973808;28;20298;-85
2022/11/17 07:53:54;;;;;;;6.83;4.37;;;;;;;;;;4973931;28;20218;-85
2022/11/17 07:56:22;;;;;;;4.50;3.87;;;;;;;;;;4960665;28;20235;-85
2022/11/17 07:58:51;;;;;;;7.57;3.67;;;;;;;;;;4973411;28;20201;-85
2022/11/17 08:01:19;;;;;;;5.00;2.60;;;;;;;;;;4973765;28;20201;-85
2022/11/17 08:03:48;;;;;;;6.80;3.77;;;;;;;;;;4973251;28;20237;-85
2022/11/17 08:06:17;;;;;;;3.40;3.10;;;;;;;;;;4970438;28;20259;-85
2022/11/17 08:08:47;;;;;;;4.27;3.33;;;;;;;;;;4964305;28;20213;-85
2022/11/17 08:11:18;;;;;;;4.23;2.77;;;;;;;;;;4973557;28;20228;-87
2022/11/17 08:13:48;;;;;;;7.80;3.00;;;;;;;;;;4973627;28;20204;-85
2022/11/17 08:16:17;;;;;;;6.93;3.00;;;;;;;;;;4969760;28;20205;-86
2022/11/17 08:18:46;;;;;;;3.90;2.93;;;;;;;;;;4963699;28;20208;-86
2022/11/17 08:21:19;;;;;;;3.93;3.53;;;;;;;;;;4962383;28;20205;-85
2022/11/17 08:23:51;;;;;;;3.97;2.43;;;;;;;;;;4974410;28;20296;-85
2022/11/17 08:26:20;;;;;;;2.93;2.23;;;;;;;;;;4973337;28;20207;-86
2022/11/17 08:28:49;;;;;;;4.33;3.37;;;;;;;;;;4972943;28;20235;-85
2022/11/17 08:31:25;;;;;;;5.93;2.60;;;;;;;;;;4973223;28;20233;-85
2022/11/17 08:33:54;;;;;;;3.17;2.80;;;;;;;;;;4975285;28;20290;-85
2022/11/17 08:36:23;;;;;;;3.50;3.00;;;;;;;;;;4977445;28;20206;-85
2022/11/17 08:38:51;;;;;;;3.33;3.03;;;;;;;;;;4977404;28;20205;-85
2022/11/17 08:41:21;;;;;;;3.03;2.73;;;;;;;;;;4977764;28;20238;-85
2022/11/17 08:43:51;;;;;;;4.57;3.47;;;;;;;;;;4977429;28;20199;-87
2022/11/17 08:46:19;;;;;;;4.90;3.60;;;;;;;;;;4977518;28;20278;-85
2022/11/17 08:48:48;;;;;;;4.03;3.63;;;;;;;;;;4977058;28;20215;-85
2022/11/17 08:51:24;;;;;;;3.10;2.80;;;;;;;;;;4976800;28;20220;-85
2022/11/17 08:53:52;;;;;;;4.50;3.70;;;;;;;;;;4977106;28;20211;-85
2022/11/17 08:56:22;;;;;;;3.93;2.97;;;;;;;;;;4975319;28;20210;-84
2022/11/17 08:58:51;;;;;;;5.17;3.23;;;;;;;;;;4967881;28;20212;-85
2022/11/17 09:01:19;;;;;;;6.67;3.93;;;;;;;;;;4976695;28;20206;-85
2022/11/17 09:03:48;;;;;;;5.93;4.17;;;;;;;;;;4977908;28;20250;-84
2022/11/17 09:06:18;;;;;;;4.90;3.17;;;;;;;;;;4977039;28;20210;-85
2022/11/17 09:08:47;;;;;;;3.23;2.50;;;;;;;;;;4976953;28;20208;-85
2022/11/17 09:11:16;;;;;;;4.87;2.50;;;;;;;;;;4976696;28;20251;-85
2022/11/17 09:13:46;;;;;;;4.40;2.57;;;;;;;;;;4977005;28;20208;-86
2022/11/17 09:16:15;;;;;;;2.83;2.33;;;;;;;;;;4976250;28;20304;-85
2022/11/17 09:18:44;;;;;;;4.10;3.67;;;;;;;;;;4976762;28;20210;-85
2022/11/17 09:21:14;;;;;;;4.70;4.23;;;;;;;;;;4970401;28;20221;-85
2022/11/17 09:23:45;;;;;;;4.57;4.17;;;;;;;;;;4969592;28;20206;-86
2022/11/17 09:26:15;;;;;;;4.43;2.80;;;;;;;;;;4975194;28;20221;-86
2022/11/17 09:28:44;;;;;;;4.90;3.27;;;;;;;;;;4975014;28;20231;-85
2022/11/17 09:31:14;;;;;;;6.47;4.03;;;;;;;;;;4974808;28;20230;-85
2022/11/17 09:33:43;;;;;;;5.47;3.83;;;;;;;;;;4973172;28;20214;-85
2022/11/17 09:36:12;;;;;;;5.70;3.70;;;;;;;;;;4977115;28;20209;-85
2022/11/17 09:38:45;;;;;;;5.87;3.83;;;;;;;;;;4977223;28;20201;-85
2022/11/17 09:41:25;;;;;;;3.73;3.27;;;;;;;;;;4976505;28;20253;-84
2022/11/17 09:44:07;;;;;;;6.00;2.83;;;;;;;;;;4975230;28;20208;-84
2022/11/17 09:46:45;;;;;;;5.07;2.30;;;;;;;;;;4976153;28;20218;-84
2022/11/17 09:49:18;;;;;;;6.03;2.57;;;;;;;;;;4977301;28;20203;-84
2022/11/17 09:51:49;;;;;;;5.43;2.57;;;;;;;;;;4976086;28;20246;-85
2022/11/17 09:54:20;;;;;;;5.03;2.70;;;;;;;;;;4975811;28;20211;-85
2022/11/17 09:56:50;;;;;;;3.57;2.37;;;;;;;;;;4976118;28;20209;-85
2022/11/17 09:59:20;;;;;;;5.73;3.13;;;;;;;;;;4976026;28;20211;-85
2022/11/17 10:01:49;;;;;;;4.33;2.50;;;;;;;;;;4957023;29;20208;-85
2022/11/17 10:04:19;;;;;;;4.47;1.60;;;;;;;;;;4958021;28;20234;-85
2022/11/17 10:06:49;;;;;;;2.23;1.90;;;;;;;;;;4977135;28;20230;-85
2022/11/17 10:09:20;;;;;;;2.27;1.90;;;;;;;;;;4973844;28;20294;-85
2022/11/17 10:11:54;;;;;;;2.27;1.90;;;;;;;;;;4963352;28;20259;-84
2022/11/17 10:14:23;;;;;;;4.30;1.90;;;;;;;;;;4974381;28;20213;-85
2022/11/17 10:16:54;;;;;;;6.13;2.23;;;;;;;;;;4976136;28;20212;-85
2022/11/17 10:19:24;;;;;;;2.10;1.90;;;;;;;;;;4975444;28;20250;-86
2022/11/17 10:21:58;;;;;;;3.63;2.27;;;;;;;;;;4975917;28;20199;-85
2022/11/17 10:24:36;;;;;;;4.10;2.10;;;;;;;;;;4963093;28;20270;-85
2022/11/17 10:27:06;;;;;;;2.77;1.60;;;;;;;;;;4975539;28;20195;-85
2022/11/17 10:29:34;;;;;;;4.07;2.20;;;;;;;;;;4972008;28;20240;-85
2022/11/17 10:32:08;;;;;;;4.90;2.63;;;;;;;;;;4971932;28;20250;-84
2022/11/17 10:34:38;;;;;;;2.50;2.00;;;;;;;;;;4966207;28;20204;-85
2022/11/17 10:37:23;;;;;;;4.93;2.93;;;;;;;;;;4973236;28;20211;-85
2022/11/17 10:40:02;;;;;;;3.90;3.00;;;;;;;;;;4963990;28;20204;-84
2022/11/17 10:42:31;;;;;;;6.33;2.87;;;;;;;;;;4963386;28;20215;-85
2022/11/17 10:45:01;;;;;;;5.47;2.83;;;;;;;;;;4972952;28;20211;-85
2022/11/17 10:47:32;;;;;;;3.60;2.80;;;;;;;;;;4975335;28;20206;-85
2022/11/17 10:50:20;;;;;;;3.00;2.70;;;;;;;;;;4975900;28;20208;-85
2022/11/17 10:52:49;;;;;;;4.63;2.80;;;;;;;;;;4976375;28;20213;-85
2022/11/17 10:55:26;;;;;;;2.90;2.60;;;;;;;;;;4973987;28;20218;-85
2022/11/17 10:57:57;;;;;;;5.40;3.20;;;;;;;;;;4975998;28;20198;-85
2022/11/17 11:00:27;;;;;;;3.77;2.67;;;;;;;;;;4966370;28;20261;-85
2022/11/17 11:03:08;;;;;;;4.97;3.60;;;;;;;;;;4971225;28;20211;-85
2022/11/17 11:05:37;;;;;;;4.70;2.60;;;;;;;;;;4975028;28;20203;-85
2022/11/17 11:08:14;;;;;;;6.30;3.00;;;;;;;;;;4974527;28;20200;-85
2022/11/17 11:10:43;;;;;;;5.57;3.47;;;;;;;;;;4975389;28;20204;-85
2022/11/17 11:13:16;;;;;;;6.93;3.10;;;;;;;;;;4978879;28;20196;-84
2022/11/17 11:15:45;;;;;;;4.53;2.40;;;;;;;;;;4962684;28;20214;-85
2022/11/17 11:18:16;;;;;;;3.67;2.60;;;;;;;;;;4975844;28;20268;-85
2022/11/17 11:20:46;;;;;;;7.40;3.03;;;;;;;;;;4972860;28;20211;-85
2022/11/17 11:23:18;;;;;;;6.23;2.57;;;;;;;;;;4964833;28;20208;-84
2022/11/17 11:25:49;;;;;;;6.03;2.67;;;;;;;;;;4970890;28;20209;-85
2022/11/17 11:28:29;;;;;;;5.87;2.90;;;;;;;;;;4955117;28;20252;-85
2022/11/17 11:31:00;;;;;;;4.63;2.90;;;;;;;;;;4974147;28;20287;-85
2022/11/17 11:33:34;;;;;;;3.20;2.53;;;;;;;;;;4974062;28;20208;-84
2022/11/17 11:36:22;;;;;;;3.57;2.93;;;;;;;;;;4973402;28;20203;-84
2022/11/17 11:38:55;;;;;;;4.83;2.40;;;;;;;;;;4973868;28;20223;-84
2022/11/17 11:41:35;;;;;;;8.00;2.80;;;;;;;;;;4974182;28;20208;-84
2022/11/17 11:44:17;;;;;;;4.03;2.13;;;;;;;;;;4974205;28;20195;-85
2022/11/17 11:46:49;;;;;;;7.13;3.33;;;;;;;;;;4973845;28;20211;-85
2022/11/17 11:49:27;;;;;;;9.13;4.30;;;;;;;;;;4974254;28;20204;-84
2022/11/17 11:51:56;;;;;;;5.57;3.13;;;;;;;;;;4973898;28;20227;-84
2022/11/17 11:54:28;;;;;;;5.43;3.50;;;;;;;;;;4973985;28;20212;-85
2022/11/17 11:56:56;;;;;;;4.83;2.80;;;;;;;;;;4967235;28;20208;-84
2022/11/17 11:59:29;;;;;;;3.43;2.77;;;;;;;;;;4968980;28;20208;-84
2022/11/17 12:02:03;;;;;;;4.37;2.60;;;;;;;;;;4965882;28;20201;-84
2022/11/17 12:04:38;;;;;;;4.93;2.53;;;;;;;;;;4970538;28;20231;-84
2022/11/17 12:07:12;;;;;;;4.33;2.40;;;;;;;;;;4973841;28;20220;-85
2022/11/17 12:09:45;;;;;;;4.20;2.00;;;;;;;;;;4973270;28;20214;-85
2022/11/17 12:12:15;;;;;;;4.50;2.60;;;;;;;;;;4973571;28;20215;-85
2022/11/17 12:14:58;;;;;;;4.87;2.53;;;;;;;;;;4970216;28;20227;-85
2022/11/17 12:17:27;;;;;;;3.97;2.00;;;;;;;;;;4969535;28;20230;-85
2022/11/17 12:19:58;;;;;;;17.53;2.37;;;;;;;;;;4973477;28;20202;-85
2022/11/17 12:22:41;;;;;;;4.87;2.37;;;;;;;;;;4961838;28;20218;-85
2022/11/17 12:25:16;;;;;;;3.27;2.30;;;;;;;;;;4970847;28;20221;-85
2022/11/17 12:27:46;;;;;;;3.37;2.00;;;;;;;;;;4977210;28;20208;-85
2022/11/17 12:30:29;;;;;;;4.13;1.83;;;;;;;;;;4973308;28;20225;-85
2022/11/17 12:32:58;;;;;;;3.20;1.70;;;;;;;;;;4954489;28;20228;-85
2022/11/17 12:35:29;;;;;;;5.27;2.20;;;;;;;;;;4973623;28;20211;-85
2022/11/17 12:38:17;;;;;;;4.87;2.00;;;;;;;;;;4973258;28;20203;-85
2022/11/17 12:40:50;;;;;;;3.17;1.80;;;;;;;;;;4976885;28;20203;-84
2022/11/17 12:43:22;;;;;;;3.50;2.10;;;;;;;;;;4973376;28;20203;-85
2022/11/17 12:45:59;;;;;;;3.87;2.30;;;;;;;;;;4973558;28;20203;-84
2022/11/17 12:48:30;;;;;;;3.70;2.20;;;;;;;;;;4969884;28;20228;-85
2022/11/17 12:51:05;;;;;;;6.30;2.27;;;;;;;;;;4965041;28;20234;-85
2022/11/17 12:53:42;;;;;;;4.27;2.43;;;;;;;;;;4973386;28;20242;-85
2022/11/17 12:56:33;;;;;;;4.13;2.20;;;;;;;;;;4972936;28;20337;-84
2022/11/17 12:59:16;;;;;;;2.20;1.97;;;;;;;;;;4973220;28;20211;-84
2022/11/17 13:01:49;;;;;;;4.13;1.90;;;;;;;;;;4972600;28;20195;-84
2022/11/17 13:04:19;;;;;;;4.27;2.80;;;;;;;;;;4974105;28;20235;-84
2022/11/17 13:07:03;;;;;;;5.43;3.37;;;;;;;;;;4966278;28;20203;-84
2022/11/17 13:09:33;;;;;;;4.00;1.97;;;;;;;;;;4983803;28;20204;-84
2022/11/17 13:12:03;;;;;;;5.60;2.50;;;;;;;;;;4964968;28;20219;-84
2022/11/17 13:14:31;;;;;;;4.93;2.47;;;;;;;;;;4972729;28;20206;-84
2022/11/17 13:17:00;;;;;;;7.97;2.93;;;;;;;;;;4973399;28;20206;-84
2022/11/17 13:19:34;;;;;;;7.40;2.13;;;;;;;;;;4974126;28;20227;-84
2022/11/17 13:22:04;;;;;;;6.77;2.70;;;;;;;;;;4976775;28;20306;-84
2022/11/17 13:24:34;;;;;;;4.13;2.30;;;;;;;;;;4964581;28;20203;-84
2022/11/17 13:27:06;;;;;;;6.20;3.33;;;;;;;;;;4976627;28;20209;-84
2022/11/17 13:29:34;;;;;;;4.70;2.73;;;;;;;;;;4976285;28;20286;-85
2022/11/17 13:32:12;;;;;;;5.63;2.40;;;;;;;;;;4976045;28;20239;-83
2022/11/17 13:34:46;;;;;;;3.80;2.00;;;;;;;;;;4976388;28;20199;-82
2022/11/17 13:37:18;;;;;;;4.47;2.10;;;;;;;;;;4975774;28;20203;-83
2022/11/17 13:40:07;;;;;;;7.10;2.73;;;;;;;;;;4976498;28;20277;-83
2022/11/17 13:42:36;;;;;;;5.33;3.20;;;;;;;;;;4961867;28;20215;-83
2022/11/17 13:45:05;;;;;;;3.80;2.60;;;;;;;;;;4959576;28;20196;-83
2022/11/17 13:47:45;;;;;;;5.80;2.83;;;;;;;;;;4976148;28;20211;-83
2022/11/17 13:50:24;;;;;;;4.83;2.63;;;;;;;;;;4976251;28;20199;-83
2022/11/17 13:52:55;;;;;;;4.10;2.33;;;;;;;;;;4975668;28;20234;-82
2022/11/17 13:55:24;;;;;;;3.67;2.50;;;;;;;;;;4960788;28;20207;-83
2022/11/17 13:57:57;;;;;;;4.20;2.37;;;;;;;;;;4958026;28;20208;-83
2022/11/17 14:00:25;;;;;;;5.00;3.00;;;;;;;;;;4976744;28;20201;-83
2022/11/17 14:02:54;;;;;;;4.10;2.90;;;;;;;;;;4975191;28;20214;-83
2022/11/17 14:05:24;;;;;;;6.83;2.77;;;;;;;;;;4975760;28;20207;-83
2022/11/17 14:07:55;;;;;;;4.27;3.10;;;;;;;;;;4975727;28;20231;-83
2022/11/17 14:10:28;;;;;;;5.47;1.97;;;;;;;;;;4975421;28;20278;-84
2022/11/17 14:13:16;;;;;;;3.77;2.23;;;;;;;;;;4975606;28;20222;-84
2022/11/17 14:15:51;;;;;;;5.77;2.80;;;;;;;;;;4975798;28;20203;-84
2022/11/17 14:18:24;;;;;;;6.43;3.30;;;;;;;;;;4975800;28;20201;-84
2022/11/17 14:21:04;;;;;;;9.10;4.23;;;;;;;;;;4975619;28;20243;-84
2022/11/17 14:23:34;;;;;;;5.37;3.17;;;;;;;;;;4975312;28;20203;-84
2022/11/17 14:26:03;;;;;;;6.00;3.77;;;;;;;;;;4975391;28;20215;-84
2022/11/17 14:28:31;;;;;;;5.83;4.63;;;;;;;;;;4975106;28;20235;-84
2022/11/17 14:31:00;;;;;;;5.93;4.17;;;;;;;;;;4979366;28;20285;-85
2022/11/17 14:33:28;;;;;;;5.67;4.03;;;;;;;;;;4975992;28;20219;-85
2022/11/17 14:35:58;;;;;;;5.10;4.60;;;;;;;;;;4975105;28;20226;-86
2022/11/17 14:38:27;;;;;;;5.77;3.30;;;;;;;;;;4974755;28;20310;-87
2022/11/17 14:40:56;;;;;;;4.20;2.97;;;;;;;;;;4974730;28;20207;-86
2022/11/17 14:43:25;;;;;;;5.80;3.97;;;;;;;;;;4974501;28;20401;-86
2022/11/17 14:45:54;;;;;;;3.47;2.73;;;;;;;;;;4974802;28;20200;-86
2022/11/17 14:48:22;;;;;;;7.07;3.80;;;;;;;;;;4974750;28;20212;-86
2022/11/17 14:50:55;;;;;;;5.57;4.43;;;;;;;;;;4974625;28;20227;-86
2022/11/17 14:53:25;;;;;;;4.60;3.93;;;;;;;;;;4974176;28;20217;-86
2022/11/17 14:55:53;;;;;;;6.90;4.27;;;;;;;;;;4975661;28;20204;-85
2022/11/17 14:58:23;;;;;;;6.73;3.57;;;;;;;;;;4974279;28;20206;-86
2022/11/17 15:00:51;;;;;;;5.90;4.50;;;;;;;;;;4974411;28;20210;-86
2022/11/17 15:03:20;;;;;;;6.63;4.23;;;;;;;;;;4975216;28;20215;-85
2022/11/17 15:05:49;;;;;;;6.57;4.93;;;;;;;;;;4974665;28;20210;-84
2022/11/17 15:08:17;;;;;;;8.80;4.13;;;;;;;;;;4962374;28;20211;-85
2022/11/17 15:10:50;;;;;;;7.67;3.87;;;;;;;;;;4972500;28;20208;-86
2022/11/17 15:13:18;;;;;;;8.00;3.57;;;;;;;;;;4974254;28;20227;-86
2022/11/17 15:15:48;;;;;;;7.63;3.50;;;;;;;;;;4974276;28;20216;-85
2022/11/17 15:18:17;;;;;;;7.70;3.47;;;;;;;;;;4974266;28;20211;-84
2022/11/17 15:20:45;;;;;;;7.73;3.60;;;;;;;;;;4974435;28;20195;-84
2022/11/17 15:23:13;;;;;;;7.77;4.17;;;;;;;;;;4974233;28;20211;-84
2022/11/17 15:25:42;;;;;;;6.70;3.70;;;;;;;;;;4974391;28;20315;-84
2022/11/17 15:28:11;;;;;;;9.90;3.30;;;;;;;;;;4973971;28;20286;-84
2022/11/17 15:30:49;;;;;;;8.53;4.10;;;;;;;;;;4974383;28;20285;-84
2022/11/17 15:33:18;;;;;;;8.87;3.80;;;;;;;;;;4973983;28;20276;-84